sensor_id;sensor_type;location;lat;lon;timestamp;P1;durP1;ratioP1;P2;durP2;ratioP2
48211;SDS011;34000;48.772;9.162;2023-12-29T00:00:18;1.67;;;1.00;;
48211;SDS011;34000;48.772;9.162;2023-12-29T00:02:44;2.33;;;1.10;;
48211;SDS011;34000;48.772;9.162;2023-12-29T00:05:10;1.80;;;1.10;;
48211;SDS011;34000;48.772;9.162;2023-12-29T00:07:35;1.65;;;1.15;;
48211;SDS011;34000;48.772;9.162;2023-12-29T00:10:01;1.30;;;1.13;;
48211;SDS011;34000;48.772;9.162;2023-12-29T00:12:26;1.98;;;1.13;;
48211;SDS011;34000;48.772;9.162;2023-12-29T00:14:52;1.98;;;1.27;;
48211;SDS011;34000;48.772;9.162;2023-12-29T00:17:17;1.58;;;1.30;;
48211;SDS011;34000;48.772;9.162;2023-12-29T00:19:43;1.38;;;1.10;;
48211;SDS011;34000;48.772;9.162;2023-12-29T00:22:09;1.70;;;1.27;;
48211;SDS011;34000;48.772;9.162;2023-12-29T00:24:35;1.25;;;1.15;;
48211;SDS011;34000;48.772;9.162;2023-12-29T00:27:00;1.55;;;1.15;;
48211;SDS011;34000;48.772;9.162;2023-12-29T00:29:26;1.38;;;1.13;;
48211;SDS011;34000;48.772;9.162;2023-12-29T00:31:57;2.55;;;1.42;;
48211;SDS011;34000;48.772;9.162;2023-12-29T00:34:23;2.15;;;1.00;;
48211;SDS011;34000;48.772;9.162;2023-12-29T00:36:48;1.10;;;1.00;;
48211;SDS011;34000;48.772;9.162;2023-12-29T00:39:14;3.53;;;1.30;;
48211;SDS011;34000;48.772;9.162;2023-12-29T00:41:40;2.20;;;1.10;;
48211;SDS011;34000;48.772;9.162;2023-12-29T00:44:06;1.73;;;1.25;;
48211;SDS011;34000;48.772;9.162;2023-12-29T00:46:33;3.63;;;1.27;;
48211;SDS011;34000;48.772;9.162;2023-12-29T00:48:58;1.88;;;1.30;;
48211;SDS011;34000;48.772;9.162;2023-12-29T00:51:24;1.65;;;1.30;;
48211;SDS011;34000;48.772;9.162;2023-12-29T00:53:49;1.38;;;1.27;;
48211;SDS011;34000;48.772;9.162;2023-12-29T00:56:15;1.75;;;1.30;;
48211;SDS011;34000;48.772;9.162;2023-12-29T00:58:41;1.05;;;0.85;;
48211;SDS011;34000;48.772;9.162;2023-12-29T01:01:07;1.73;;;1.20;;
48211;SDS011;34000;48.772;9.162;2023-12-29T01:03:34;1.30;;;1.20;;
48211;SDS011;34000;48.772;9.162;2023-12-29T01:05:59;1.33;;;1.20;;
48211;SDS011;34000;48.772;9.162;2023-12-29T01:08:25;1.48;;;1.27;;
48211;SDS011;34000;48.772;9.162;2023-12-29T01:10:51;2.47;;;1.13;;
48211;SDS011;34000;48.772;9.162;2023-12-29T01:13:16;1.58;;;1.15;;
48211;SDS011;34000;48.772;9.162;2023-12-29T01:15:42;1.52;;;1.20;;
48211;SDS011;34000;48.772;9.162;2023-12-29T01:18:10;1.60;;;1.25;;
48211;SDS011;34000;48.772;9.162;2023-12-29T01:20:36;1.58;;;1.23;;
48211;SDS011;34000;48.772;9.162;2023-12-29T01:23:04;1.27;;;1.17;;
48211;SDS011;34000;48.772;9.162;2023-12-29T01:25:30;1.90;;;1.05;;
48211;SDS011;34000;48.772;9.162;2023-12-29T01:27:55;1.40;;;1.30;;
48211;SDS011;34000;48.772;9.162;2023-12-29T01:30:21;1.90;;;1.17;;
48211;SDS011;34000;48.772;9.162;2023-12-29T01:32:48;2.38;;;1.48;;
48211;SDS011;34000;48.772;9.162;2023-12-29T01:35:13;1.58;;;1.20;;
48211;SDS011;34000;48.772;9.162;2023-12-29T01:37:39;2.47;;;1.05;;
48211;SDS011;34000;48.772;9.162;2023-12-29T01:40:05;1.70;;;1.35;;
48211;SDS011;34000;48.772;9.162;2023-12-29T01:42:31;1.88;;;1.27;;
48211;SDS011;34000;48.772;9.162;2023-12-29T01:44:56;1.77;;;1.20;;
48211;SDS011;34000;48.772;9.162;2023-12-29T01:47:22;1.55;;;1.10;;
48211;SDS011;34000;48.772;9.162;2023-12-29T01:49:48;4.68;;;1.30;;
48211;SDS011;34000;48.772;9.162;2023-12-29T01:52:15;1.48;;;1.33;;
48211;SDS011;34000;48.772;9.162;2023-12-29T01:54:42;2.17;;;1.33;;
48211;SDS011;34000;48.772;9.162;2023-12-29T01:57:09;1.92;;;1.30;;
48211;SDS011;34000;48.772;9.162;2023-12-29T01:59:35;1.60;;;1.33;;
48211;SDS011;34000;48.772;9.162;2023-12-29T02:02:03;1.73;;;1.20;;
48211;SDS011;34000;48.772;9.162;2023-12-29T02:04:29;2.10;;;1.42;;
48211;SDS011;34000;48.772;9.162;2023-12-29T02:06:56;2.38;;;1.63;;
48211;SDS011;34000;48.772;9.162;2023-12-29T02:09:22;3.05;;;1.48;;
48211;SDS011;34000;48.772;9.162;2023-12-29T02:11:47;1.83;;;1.40;;
48211;SDS011;34000;48.772;9.162;2023-12-29T02:14:17;1.90;;;1.70;;
48211;SDS011;34000;48.772;9.162;2023-12-29T02:21:59;1.27;;;1.08;;
48211;SDS011;34000;48.772;9.162;2023-12-29T02:24:25;1.50;;;1.30;;
48211;SDS011;34000;48.772;9.162;2023-12-29T02:26:53;2.35;;;1.65;;
48211;SDS011;34000;48.772;9.162;2023-12-29T02:29:29;1.92;;;1.60;;
48211;SDS011;34000;48.772;9.162;2023-12-29T02:31:58;3.40;;;1.45;;
48211;SDS011;34000;48.772;9.162;2023-12-29T02:34:25;2.00;;;1.42;;
48211;SDS011;34000;48.772;9.162;2023-12-29T02:36:52;1.80;;;1.40;;
48211;SDS011;34000;48.772;9.162;2023-12-29T02:39:19;1.95;;;1.60;;
48211;SDS011;34000;48.772;9.162;2023-12-29T02:41:45;2.42;;;1.38;;
48211;SDS011;34000;48.772;9.162;2023-12-29T02:44:11;2.40;;;1.50;;
48211;SDS011;34000;48.772;9.162;2023-12-29T02:46:36;1.88;;;1.05;;
48211;SDS011;34000;48.772;9.162;2023-12-29T02:49:02;1.38;;;0.90;;
48211;SDS011;34000;48.772;9.162;2023-12-29T02:51:28;2.17;;;1.50;;
48211;SDS011;34000;48.772;9.162;2023-12-29T02:53:53;3.17;;;1.58;;
48211;SDS011;34000;48.772;9.162;2023-12-29T02:56:19;2.72;;;1.27;;
48211;SDS011;34000;48.772;9.162;2023-12-29T02:58:44;2.15;;;1.50;;
48211;SDS011;34000;48.772;9.162;2023-12-29T03:01:11;2.08;;;1.40;;
48211;SDS011;34000;48.772;9.162;2023-12-29T03:03:36;2.35;;;1.58;;
48211;SDS011;34000;48.772;9.162;2023-12-29T03:06:04;1.45;;;1.35;;
48211;SDS011;34000;48.772;9.162;2023-12-29T03:08:31;2.05;;;1.40;;
48211;SDS011;34000;48.772;9.162;2023-12-29T03:10:57;3.08;;;1.70;;
48211;SDS011;34000;48.772;9.162;2023-12-29T03:13:23;1.83;;;1.27;;
48211;SDS011;34000;48.772;9.162;2023-12-29T03:15:48;2.53;;;1.58;;
48211;SDS011;34000;48.772;9.162;2023-12-29T03:18:14;1.55;;;1.27;;
48211;SDS011;34000;48.772;9.162;2023-12-29T03:20:39;2.92;;;1.30;;
48211;SDS011;34000;48.772;9.162;2023-12-29T03:23:05;2.58;;;1.50;;
48211;SDS011;34000;48.772;9.162;2023-12-29T03:25:31;2.38;;;1.65;;
48211;SDS011;34000;48.772;9.162;2023-12-29T03:27:56;2.92;;;1.83;;
48211;SDS011;34000;48.772;9.162;2023-12-29T03:30:22;3.13;;;1.42;;
48211;SDS011;34000;48.772;9.162;2023-12-29T03:32:47;3.28;;;1.67;;
48211;SDS011;34000;48.772;9.162;2023-12-29T03:35:13;1.73;;;1.30;;
48211;SDS011;34000;48.772;9.162;2023-12-29T03:37:39;2.10;;;1.55;;
48211;SDS011;34000;48.772;9.162;2023-12-29T03:40:05;1.85;;;1.10;;
48211;SDS011;34000;48.772;9.162;2023-12-29T03:42:31;3.28;;;1.90;;
48211;SDS011;34000;48.772;9.162;2023-12-29T03:44:56;2.03;;;1.30;;
48211;SDS011;34000;48.772;9.162;2023-12-29T03:47:23;1.50;;;1.10;;
48211;SDS011;34000;48.772;9.162;2023-12-29T03:49:48;2.25;;;1.50;;
48211;SDS011;34000;48.772;9.162;2023-12-29T03:52:14;1.30;;;1.10;;
48211;SDS011;34000;48.772;9.162;2023-12-29T03:54:39;1.20;;;1.10;;
48211;SDS011;34000;48.772;9.162;2023-12-29T03:57:05;1.73;;;1.20;;
48211;SDS011;34000;48.772;9.162;2023-12-29T03:59:30;3.92;;;1.20;;
48211;SDS011;34000;48.772;9.162;2023-12-29T04:01:56;4.13;;;1.23;;
48211;SDS011;34000;48.772;9.162;2023-12-29T04:04:22;3.10;;;1.40;;
48211;SDS011;34000;48.772;9.162;2023-12-29T04:06:48;3.75;;;1.35;;
48211;SDS011;34000;48.772;9.162;2023-12-29T04:09:14;3.55;;;1.15;;
48211;SDS011;34000;48.772;9.162;2023-12-29T04:11:39;3.17;;;1.13;;
48211;SDS011;34000;48.772;9.162;2023-12-29T04:14:05;2.75;;;1.50;;
48211;SDS011;34000;48.772;9.162;2023-12-29T04:16:30;1.10;;;1.00;;
48211;SDS011;34000;48.772;9.162;2023-12-29T04:18:56;2.45;;;1.40;;
48211;SDS011;34000;48.772;9.162;2023-12-29T04:21:22;1.15;;;1.00;;
48211;SDS011;34000;48.772;9.162;2023-12-29T04:23:47;1.67;;;1.20;;
48211;SDS011;34000;48.772;9.162;2023-12-29T04:26:13;2.90;;;1.55;;
48211;SDS011;34000;48.772;9.162;2023-12-29T04:28:38;2.95;;;1.45;;
48211;SDS011;34000;48.772;9.162;2023-12-29T04:31:04;2.08;;;1.30;;
48211;SDS011;34000;48.772;9.162;2023-12-29T04:33:29;1.88;;;1.20;;
48211;SDS011;34000;48.772;9.162;2023-12-29T04:35:55;1.65;;;1.35;;
48211;SDS011;34000;48.772;9.162;2023-12-29T04:38:20;1.27;;;1.08;;
48211;SDS011;34000;48.772;9.162;2023-12-29T04:40:46;1.30;;;1.15;;
48211;SDS011;34000;48.772;9.162;2023-12-29T04:43:12;1.50;;;1.38;;
48211;SDS011;34000;48.772;9.162;2023-12-29T04:45:38;1.35;;;1.20;;
48211;SDS011;34000;48.772;9.162;2023-12-29T04:48:04;1.48;;;1.33;;
48211;SDS011;34000;48.772;9.162;2023-12-29T04:50:29;1.58;;;1.48;;
48211;SDS011;34000;48.772;9.162;2023-12-29T04:52:55;2.40;;;1.40;;
48211;SDS011;34000;48.772;9.162;2023-12-29T04:55:20;1.77;;;1.00;;
48211;SDS011;34000;48.772;9.162;2023-12-29T04:57:46;2.13;;;1.55;;
48211;SDS011;34000;48.772;9.162;2023-12-29T05:00:12;1.23;;;1.02;;
48211;SDS011;34000;48.772;9.162;2023-12-29T05:02:38;1.00;;;0.93;;
48211;SDS011;34000;48.772;9.162;2023-12-29T05:05:03;1.23;;;1.13;;
48211;SDS011;34000;48.772;9.162;2023-12-29T05:07:29;1.90;;;1.30;;
48211;SDS011;34000;48.772;9.162;2023-12-29T05:09:55;1.77;;;1.23;;
48211;SDS011;34000;48.772;9.162;2023-12-29T05:12:20;3.10;;;1.52;;
48211;SDS011;34000;48.772;9.162;2023-12-29T05:14:46;1.95;;;1.75;;
48211;SDS011;34000;48.772;9.162;2023-12-29T05:17:12;1.92;;;1.42;;
48211;SDS011;34000;48.772;9.162;2023-12-29T05:19:37;3.95;;;1.48;;
48211;SDS011;34000;48.772;9.162;2023-12-29T05:22:03;2.40;;;1.35;;
48211;SDS011;34000;48.772;9.162;2023-12-29T05:24:29;1.35;;;1.25;;
48211;SDS011;34000;48.772;9.162;2023-12-29T05:26:54;3.40;;;1.30;;
48211;SDS011;34000;48.772;9.162;2023-12-29T05:29:20;2.08;;;1.55;;
48211;SDS011;34000;48.772;9.162;2023-12-29T05:31:45;1.73;;;1.20;;
48211;SDS011;34000;48.772;9.162;2023-12-29T05:34:11;1.20;;;0.73;;
48211;SDS011;34000;48.772;9.162;2023-12-29T05:36:37;1.52;;;1.20;;
48211;SDS011;34000;48.772;9.162;2023-12-29T05:39:02;1.48;;;1.30;;
48211;SDS011;34000;48.772;9.162;2023-12-29T05:41:28;1.77;;;1.10;;
48211;SDS011;34000;48.772;9.162;2023-12-29T05:43:54;2.30;;;1.33;;
48211;SDS011;34000;48.772;9.162;2023-12-29T05:46:22;1.55;;;1.30;;
48211;SDS011;34000;48.772;9.162;2023-12-29T05:48:48;1.88;;;1.30;;
48211;SDS011;34000;48.772;9.162;2023-12-29T05:51:14;1.88;;;1.20;;
48211;SDS011;34000;48.772;9.162;2023-12-29T05:53:40;1.92;;;1.13;;
48211;SDS011;34000;48.772;9.162;2023-12-29T05:56:05;1.33;;;1.23;;
48211;SDS011;34000;48.772;9.162;2023-12-29T05:58:31;2.35;;;1.40;;
48211;SDS011;34000;48.772;9.162;2023-12-29T06:00:57;1.55;;;1.45;;
48211;SDS011;34000;48.772;9.162;2023-12-29T06:03:25;1.40;;;1.30;;
48211;SDS011;34000;48.772;9.162;2023-12-29T06:05:51;1.75;;;1.40;;
48211;SDS011;34000;48.772;9.162;2023-12-29T06:08:17;1.95;;;1.50;;
48211;SDS011;34000;48.772;9.162;2023-12-29T06:10:42;1.92;;;1.50;;
48211;SDS011;34000;48.772;9.162;2023-12-29T06:13:08;1.83;;;1.40;;
48211;SDS011;34000;48.772;9.162;2023-12-29T06:15:34;1.40;;;1.30;;
48211;SDS011;34000;48.772;9.162;2023-12-29T06:17:59;2.83;;;1.50;;
48211;SDS011;34000;48.772;9.162;2023-12-29T06:20:25;1.48;;;1.10;;
48211;SDS011;34000;48.772;9.162;2023-12-29T06:22:51;3.25;;;1.63;;
48211;SDS011;34000;48.772;9.162;2023-12-29T06:25:17;2.50;;;1.20;;
48211;SDS011;34000;48.772;9.162;2023-12-29T06:27:42;1.40;;;1.17;;
48211;SDS011;34000;48.772;9.162;2023-12-29T06:30:08;1.40;;;1.30;;
48211;SDS011;34000;48.772;9.162;2023-12-29T06:32:37;1.30;;;1.20;;
48211;SDS011;34000;48.772;9.162;2023-12-29T06:35:04;1.38;;;1.10;;
48211;SDS011;34000;48.772;9.162;2023-12-29T06:37:30;1.67;;;1.10;;
48211;SDS011;34000;48.772;9.162;2023-12-29T06:39:56;2.00;;;1.48;;
48211;SDS011;34000;48.772;9.162;2023-12-29T06:42:22;1.13;;;0.90;;
48211;SDS011;34000;48.772;9.162;2023-12-29T06:44:47;2.30;;;1.00;;
48211;SDS011;34000;48.772;9.162;2023-12-29T06:47:13;1.83;;;1.17;;
48211;SDS011;34000;48.772;9.162;2023-12-29T06:49:39;2.13;;;1.08;;
48211;SDS011;34000;48.772;9.162;2023-12-29T06:52:05;1.35;;;1.17;;
48211;SDS011;34000;48.772;9.162;2023-12-29T06:54:33;1.42;;;1.10;;
48211;SDS011;34000;48.772;9.162;2023-12-29T06:56:59;1.90;;;1.17;;
48211;SDS011;34000;48.772;9.162;2023-12-29T06:59:25;1.65;;;1.38;;
48211;SDS011;34000;48.772;9.162;2023-12-29T07:01:50;1.13;;;0.93;;
48211;SDS011;34000;48.772;9.162;2023-12-29T07:04:16;1.65;;;0.95;;
48211;SDS011;34000;48.772;9.162;2023-12-29T07:06:42;1.17;;;1.00;;
48211;SDS011;34000;48.772;9.162;2023-12-29T07:09:07;1.35;;;1.05;;
48211;SDS011;34000;48.772;9.162;2023-12-29T07:11:34;1.98;;;1.25;;
48211;SDS011;34000;48.772;9.162;2023-12-29T07:14:00;1.38;;;1.00;;
48211;SDS011;34000;48.772;9.162;2023-12-29T07:16:26;1.85;;;1.10;;
48211;SDS011;34000;48.772;9.162;2023-12-29T07:18:52;1.52;;;0.90;;
48211;SDS011;34000;48.772;9.162;2023-12-29T07:21:18;1.20;;;1.10;;
48211;SDS011;34000;48.772;9.162;2023-12-29T07:23:43;3.22;;;0.93;;
48211;SDS011;34000;48.772;9.162;2023-12-29T07:26:09;0.80;;;0.80;;
48211;SDS011;34000;48.772;9.162;2023-12-29T07:28:35;0.95;;;0.85;;
48211;SDS011;34000;48.772;9.162;2023-12-29T07:31:01;1.70;;;1.10;;
48211;SDS011;34000;48.772;9.162;2023-12-29T07:33:27;0.95;;;0.95;;
48211;SDS011;34000;48.772;9.162;2023-12-29T07:35:53;1.35;;;1.10;;
48211;SDS011;34000;48.772;9.162;2023-12-29T07:38:19;1.38;;;1.10;;
48211;SDS011;34000;48.772;9.162;2023-12-29T07:40:45;1.10;;;1.00;;
48211;SDS011;34000;48.772;9.162;2023-12-29T07:43:12;1.20;;;1.10;;
48211;SDS011;34000;48.772;9.162;2023-12-29T07:45:38;1.60;;;1.20;;
48211;SDS011;34000;48.772;9.162;2023-12-29T07:48:05;1.20;;;1.10;;
48211;SDS011;34000;48.772;9.162;2023-12-29T07:50:30;2.05;;;1.10;;
48211;SDS011;34000;48.772;9.162;2023-12-29T07:52:56;1.45;;;1.00;;
48211;SDS011;34000;48.772;9.162;2023-12-29T07:55:22;0.70;;;0.70;;
48211;SDS011;34000;48.772;9.162;2023-12-29T07:57:47;1.80;;;1.05;;
48211;SDS011;34000;48.772;9.162;2023-12-29T08:00:17;1.52;;;1.00;;
48211;SDS011;34000;48.772;9.162;2023-12-29T08:02:42;2.65;;;1.42;;
48211;SDS011;34000;48.772;9.162;2023-12-29T08:05:08;1.50;;;1.00;;
48211;SDS011;34000;48.772;9.162;2023-12-29T08:07:34;2.63;;;1.50;;
48211;SDS011;34000;48.772;9.162;2023-12-29T08:10:02;2.25;;;1.00;;
48211;SDS011;34000;48.772;9.162;2023-12-29T08:12:29;1.70;;;1.00;;
48211;SDS011;34000;48.772;9.162;2023-12-29T08:14:55;1.20;;;0.82;;
48211;SDS011;34000;48.772;9.162;2023-12-29T08:17:21;2.22;;;1.05;;
48211;SDS011;34000;48.772;9.162;2023-12-29T08:19:47;1.30;;;1.10;;
48211;SDS011;34000;48.772;9.162;2023-12-29T08:22:12;0.90;;;0.90;;
48211;SDS011;34000;48.772;9.162;2023-12-29T08:24:40;1.10;;;1.00;;
48211;SDS011;34000;48.772;9.162;2023-12-29T08:27:08;1.85;;;1.10;;
48211;SDS011;34000;48.772;9.162;2023-12-29T08:29:35;2.30;;;1.40;;
48211;SDS011;34000;48.772;9.162;2023-12-29T08:32:01;1.85;;;1.02;;
48211;SDS011;34000;48.772;9.162;2023-12-29T08:34:27;3.40;;;1.15;;
48211;SDS011;34000;48.772;9.162;2023-12-29T08:36:52;1.45;;;1.10;;
48211;SDS011;34000;48.772;9.162;2023-12-29T08:39:18;1.17;;;1.00;;
48211;SDS011;34000;48.772;9.162;2023-12-29T08:41:44;2.38;;;1.25;;
48211;SDS011;34000;48.772;9.162;2023-12-29T08:44:10;2.17;;;1.30;;
48211;SDS011;34000;48.772;9.162;2023-12-29T08:46:35;2.50;;;1.45;;
48211;SDS011;34000;48.772;9.162;2023-12-29T08:49:01;1.17;;;1.08;;
48211;SDS011;34000;48.772;9.162;2023-12-29T08:51:27;1.08;;;0.98;;
48211;SDS011;34000;48.772;9.162;2023-12-29T08:53:53;1.50;;;1.10;;
48211;SDS011;34000;48.772;9.162;2023-12-29T08:56:19;1.33;;;1.08;;
48211;SDS011;34000;48.772;9.162;2023-12-29T08:58:44;1.42;;;1.10;;
48211;SDS011;34000;48.772;9.162;2023-12-29T09:01:10;1.30;;;1.15;;
48211;SDS011;34000;48.772;9.162;2023-12-29T09:03:36;2.25;;;1.13;;
48211;SDS011;34000;48.772;9.162;2023-12-29T09:06:01;2.25;;;1.05;;
48211;SDS011;34000;48.772;9.162;2023-12-29T09:08:28;0.85;;;0.85;;
48211;SDS011;34000;48.772;9.162;2023-12-29T09:10:54;2.25;;;1.20;;
48211;SDS011;34000;48.772;9.162;2023-12-29T09:13:20;1.05;;;0.95;;
48211;SDS011;34000;48.772;9.162;2023-12-29T09:15:47;1.30;;;1.10;;
48211;SDS011;34000;48.772;9.162;2023-12-29T09:18:13;2.35;;;1.10;;
48211;SDS011;34000;48.772;9.162;2023-12-29T09:20:39;1.42;;;1.10;;
48211;SDS011;34000;48.772;9.162;2023-12-29T09:23:05;1.25;;;0.88;;
48211;SDS011;34000;48.772;9.162;2023-12-29T09:25:30;1.35;;;1.17;;
48211;SDS011;34000;48.772;9.162;2023-12-29T09:27:56;1.00;;;1.00;;
48211;SDS011;34000;48.772;9.162;2023-12-29T09:30:22;1.60;;;1.20;;
48211;SDS011;34000;48.772;9.162;2023-12-29T09:32:47;1.67;;;1.20;;
48211;SDS011;34000;48.772;9.162;2023-12-29T09:35:13;1.23;;;0.90;;
48211;SDS011;34000;48.772;9.162;2023-12-29T09:37:38;1.27;;;0.98;;
48211;SDS011;34000;48.772;9.162;2023-12-29T09:40:04;1.25;;;0.95;;
48211;SDS011;34000;48.772;9.162;2023-12-29T09:42:34;2.28;;;1.08;;
48211;SDS011;34000;48.772;9.162;2023-12-29T09:45:07;0.70;;;0.70;;
48211;SDS011;34000;48.772;9.162;2023-12-29T09:47:37;0.93;;;0.90;;
48211;SDS011;34000;48.772;9.162;2023-12-29T09:50:04;1.25;;;1.13;;
48211;SDS011;34000;48.772;9.162;2023-12-29T09:52:32;1.48;;;0.80;;
48211;SDS011;34000;48.772;9.162;2023-12-29T09:54:59;0.85;;;0.85;;
48211;SDS011;34000;48.772;9.162;2023-12-29T09:57:24;1.30;;;0.88;;
48211;SDS011;34000;48.772;9.162;2023-12-29T09:59:51;1.42;;;1.08;;
48211;SDS011;34000;48.772;9.162;2023-12-29T10:02:17;1.17;;;1.08;;
48211;SDS011;34000;48.772;9.162;2023-12-29T10:04:42;1.20;;;1.10;;
48211;SDS011;34000;48.772;9.162;2023-12-29T10:07:08;1.40;;;1.00;;
48211;SDS011;34000;48.772;9.162;2023-12-29T10:09:40;1.05;;;0.95;;
48211;SDS011;34000;48.772;9.162;2023-12-29T10:12:08;3.65;;;1.00;;
48211;SDS011;34000;48.772;9.162;2023-12-29T10:14:44;1.48;;;0.90;;
48211;SDS011;34000;48.772;9.162;2023-12-29T10:20:25;0.77;;;0.75;;
48211;SDS011;34000;48.772;9.162;2023-12-29T10:23:20;0.80;;;0.77;;
48211;SDS011;34000;48.772;9.162;2023-12-29T10:25:50;1.15;;;0.77;;
48211;SDS011;34000;48.772;9.162;2023-12-29T10:28:16;1.08;;;1.00;;
48211;SDS011;34000;48.772;9.162;2023-12-29T10:30:45;0.77;;;0.77;;
48211;SDS011;34000;48.772;9.162;2023-12-29T10:33:13;0.90;;;0.90;;
48211;SDS011;34000;48.772;9.162;2023-12-29T10:35:59;2.08;;;1.20;;
48211;SDS011;34000;48.772;9.162;2023-12-29T10:38:30;0.70;;;0.60;;
48211;SDS011;34000;48.772;9.162;2023-12-29T10:43:41;0.98;;;0.90;;
48211;SDS011;34000;48.772;9.162;2023-12-29T10:46:09;0.60;;;0.60;;
48211;SDS011;34000;48.772;9.162;2023-12-29T10:48:36;0.63;;;0.63;;
48211;SDS011;34000;48.772;9.162;2023-12-29T10:51:02;1.23;;;0.60;;
48211;SDS011;34000;48.772;9.162;2023-12-29T10:53:33;0.50;;;0.50;;
48211;SDS011;34000;48.772;9.162;2023-12-29T10:55:59;2.65;;;0.90;;
48211;SDS011;34000;48.772;9.162;2023-12-29T10:58:34;0.98;;;0.70;;
48211;SDS011;34000;48.772;9.162;2023-12-29T11:01:02;2.47;;;0.70;;
48211;SDS011;34000;48.772;9.162;2023-12-29T11:03:40;0.95;;;0.77;;
48211;SDS011;34000;48.772;9.162;2023-12-29T11:06:06;0.60;;;0.60;;
48211;SDS011;34000;48.772;9.162;2023-12-29T11:08:31;1.27;;;1.15;;
48211;SDS011;34000;48.772;9.162;2023-12-29T11:11:00;0.70;;;0.60;;
48211;SDS011;34000;48.772;9.162;2023-12-29T11:13:27;0.70;;;0.65;;
48211;SDS011;34000;48.772;9.162;2023-12-29T11:15:54;0.70;;;0.60;;
48211;SDS011;34000;48.772;9.162;2023-12-29T11:18:21;1.15;;;0.65;;
48211;SDS011;34000;48.772;9.162;2023-12-29T11:20:48;1.23;;;0.60;;
48211;SDS011;34000;48.772;9.162;2023-12-29T11:23:14;0.93;;;0.70;;
48211;SDS011;34000;48.772;9.162;2023-12-29T11:25:40;2.30;;;0.80;;
48211;SDS011;34000;48.772;9.162;2023-12-29T11:28:09;0.60;;;0.50;;
48211;SDS011;34000;48.772;9.162;2023-12-29T11:30:38;0.63;;;0.60;;
48211;SDS011;34000;48.772;9.162;2023-12-29T11:35:53;0.55;;;0.55;;
48211;SDS011;34000;48.772;9.162;2023-12-29T11:38:52;0.52;;;0.52;;
48211;SDS011;34000;48.772;9.162;2023-12-29T11:44:08;1.10;;;0.80;;
48211;SDS011;34000;48.772;9.162;2023-12-29T11:46:34;2.30;;;0.63;;
48211;SDS011;34000;48.772;9.162;2023-12-29T11:49:06;0.73;;;0.60;;
48211;SDS011;34000;48.772;9.162;2023-12-29T11:51:37;0.45;;;0.45;;
48211;SDS011;34000;48.772;9.162;2023-12-29T11:54:05;0.40;;;0.40;;
48211;SDS011;34000;48.772;9.162;2023-12-29T11:56:36;1.15;;;0.95;;
48211;SDS011;34000;48.772;9.162;2023-12-29T12:01:48;0.52;;;0.52;;
48211;SDS011;34000;48.772;9.162;2023-12-29T12:09:48;0.47;;;0.47;;
48211;SDS011;34000;48.772;9.162;2023-12-29T12:12:38;0.60;;;0.60;;
48211;SDS011;34000;48.772;9.162;2023-12-29T12:15:07;0.60;;;0.60;;
48211;SDS011;34000;48.772;9.162;2023-12-29T12:17:57;0.82;;;0.60;;
48211;SDS011;34000;48.772;9.162;2023-12-29T12:20:29;1.10;;;0.80;;
48211;SDS011;34000;48.772;9.162;2023-12-29T12:23:01;0.70;;;0.63;;
48211;SDS011;34000;48.772;9.162;2023-12-29T12:25:30;1.58;;;1.10;;
48211;SDS011;34000;48.772;9.162;2023-12-29T12:27:59;3.03;;;1.75;;
48211;SDS011;34000;48.772;9.162;2023-12-29T12:30:27;0.75;;;0.60;;
48211;SDS011;34000;48.772;9.162;2023-12-29T12:33:00;1.58;;;0.70;;
48211;SDS011;34000;48.772;9.162;2023-12-29T12:35:27;1.95;;;0.73;;
48211;SDS011;34000;48.772;9.162;2023-12-29T12:38:10;0.93;;;0.60;;
48211;SDS011;34000;48.772;9.162;2023-12-29T12:40:37;0.95;;;0.88;;
48211;SDS011;34000;48.772;9.162;2023-12-29T12:43:03;1.23;;;0.90;;
48211;SDS011;34000;48.772;9.162;2023-12-29T12:45:29;1.00;;;0.70;;
48211;SDS011;34000;48.772;9.162;2023-12-29T12:50:42;0.85;;;0.57;;
48211;SDS011;34000;48.772;9.162;2023-12-29T12:53:12;1.15;;;0.77;;
48211;SDS011;34000;48.772;9.162;2023-12-29T12:55:45;0.80;;;0.77;;
48211;SDS011;34000;48.772;9.162;2023-12-29T12:58:16;1.55;;;0.50;;
48211;SDS011;34000;48.772;9.162;2023-12-29T13:00:46;1.02;;;0.80;;
48211;SDS011;34000;48.772;9.162;2023-12-29T13:03:12;0.70;;;0.70;;
48211;SDS011;34000;48.772;9.162;2023-12-29T13:05:39;1.40;;;0.80;;
48211;SDS011;34000;48.772;9.162;2023-12-29T13:08:05;1.02;;;0.80;;
48211;SDS011;34000;48.772;9.162;2023-12-29T13:10:31;0.55;;;0.55;;
48211;SDS011;34000;48.772;9.162;2023-12-29T13:12:57;0.93;;;0.60;;
48211;SDS011;34000;48.772;9.162;2023-12-29T13:15:23;1.20;;;0.70;;
48211;SDS011;34000;48.772;9.162;2023-12-29T13:17:52;0.80;;;0.65;;
48211;SDS011;34000;48.772;9.162;2023-12-29T13:20:47;1.92;;;0.73;;
48211;SDS011;34000;48.772;9.162;2023-12-29T13:23:14;0.98;;;0.68;;
48211;SDS011;34000;48.772;9.162;2023-12-29T13:25:40;1.10;;;1.00;;
48211;SDS011;34000;48.772;9.162;2023-12-29T13:28:08;0.82;;;0.65;;
48211;SDS011;34000;48.772;9.162;2023-12-29T13:30:35;0.63;;;0.57;;
48211;SDS011;34000;48.772;9.162;2023-12-29T13:33:12;1.00;;;0.70;;
48211;SDS011;34000;48.772;9.162;2023-12-29T13:36:08;0.88;;;0.70;;
48211;SDS011;34000;48.772;9.162;2023-12-29T13:38:47;1.05;;;0.80;;
48211;SDS011;34000;48.772;9.162;2023-12-29T13:41:16;0.90;;;0.90;;
48211;SDS011;34000;48.772;9.162;2023-12-29T13:43:44;1.25;;;0.90;;
48211;SDS011;34000;48.772;9.162;2023-12-29T13:46:11;0.57;;;0.57;;
48211;SDS011;34000;48.772;9.162;2023-12-29T13:48:39;3.15;;;0.80;;
48211;SDS011;34000;48.772;9.162;2023-12-29T13:51:06;0.77;;;0.73;;
48211;SDS011;34000;48.772;9.162;2023-12-29T13:53:32;1.38;;;0.68;;
48211;SDS011;34000;48.772;9.162;2023-12-29T13:56:05;1.77;;;0.77;;
48211;SDS011;34000;48.772;9.162;2023-12-29T13:58:32;1.17;;;0.90;;
48211;SDS011;34000;48.772;9.162;2023-12-29T14:00:57;0.75;;;0.75;;
48211;SDS011;34000;48.772;9.162;2023-12-29T14:03:31;0.70;;;0.70;;
48211;SDS011;34000;48.772;9.162;2023-12-29T14:06:03;1.80;;;0.95;;
48211;SDS011;34000;48.772;9.162;2023-12-29T14:08:32;0.65;;;0.55;;
48211;SDS011;34000;48.772;9.162;2023-12-29T14:11:10;0.60;;;0.60;;
48211;SDS011;34000;48.772;9.162;2023-12-29T14:13:40;1.95;;;0.73;;
48211;SDS011;34000;48.772;9.162;2023-12-29T14:16:07;1.63;;;0.87;;
48211;SDS011;34000;48.772;9.162;2023-12-29T14:20:58;1.02;;;0.93;;
48211;SDS011;34000;48.772;9.162;2023-12-29T14:23:24;1.58;;;0.75;;
48211;SDS011;34000;48.772;9.162;2023-12-29T14:25:50;1.02;;;0.65;;
48211;SDS011;34000;48.772;9.162;2023-12-29T14:28:19;1.00;;;0.90;;
48211;SDS011;34000;48.772;9.162;2023-12-29T14:30:48;1.58;;;0.90;;
48211;SDS011;34000;48.772;9.162;2023-12-29T14:33:14;0.63;;;0.63;;
48211;SDS011;34000;48.772;9.162;2023-12-29T14:35:40;0.70;;;0.70;;
48211;SDS011;34000;48.772;9.162;2023-12-29T14:38:05;0.80;;;0.68;;
48211;SDS011;34000;48.772;9.162;2023-12-29T14:40:31;1.02;;;0.90;;
48211;SDS011;34000;48.772;9.162;2023-12-29T14:43:00;1.38;;;0.70;;
48211;SDS011;34000;48.772;9.162;2023-12-29T14:45:26;0.88;;;0.65;;
48211;SDS011;34000;48.772;9.162;2023-12-29T14:47:55;1.98;;;1.05;;
48211;SDS011;34000;48.772;9.162;2023-12-29T14:50:23;0.68;;;0.68;;
48211;SDS011;34000;48.772;9.162;2023-12-29T14:52:49;1.27;;;0.90;;
48211;SDS011;34000;48.772;9.162;2023-12-29T14:55:15;0.88;;;0.70;;
48211;SDS011;34000;48.772;9.162;2023-12-29T14:57:40;0.68;;;0.63;;
48211;SDS011;34000;48.772;9.162;2023-12-29T15:00:06;2.00;;;0.80;;
48211;SDS011;34000;48.772;9.162;2023-12-29T15:02:34;0.90;;;0.90;;
48211;SDS011;34000;48.772;9.162;2023-12-29T15:04:59;0.95;;;0.90;;
48211;SDS011;34000;48.772;9.162;2023-12-29T15:07:25;2.35;;;0.70;;
48211;SDS011;34000;48.772;9.162;2023-12-29T15:09:55;0.82;;;0.73;;
48211;SDS011;34000;48.772;9.162;2023-12-29T15:12:21;0.80;;;0.73;;
48211;SDS011;34000;48.772;9.162;2023-12-29T15:14:47;0.60;;;0.55;;
48211;SDS011;34000;48.772;9.162;2023-12-29T15:17:13;1.45;;;0.82;;